createdAt,value
2023-04-21T00:00:15.794Z,11.19
2023-04-21T00:01:15.795Z,11.19
2023-04-21T00:02:15.882Z,11.16
2023-04-21T00:03:15.923Z,11.18
2023-04-21T00:04:15.973Z,11.18
2023-04-21T00:05:15.944Z,11.20
2023-04-21T00:06:15.759Z,11.19
2023-04-21T00:07:15.754Z,11.19
2023-04-21T00:08:15.743Z,11.16
2023-04-21T00:09:15.772Z,11.22
2023-04-21T00:10:15.712Z,11.31
2023-04-21T00:11:15.694Z,11.31
2023-04-21T00:12:15.731Z,11.25
2023-04-21T00:13:15.668Z,11.27
2023-04-21T00:14:15.671Z,11.30
2023-04-21T00:15:15.632Z,11.30
2023-04-21T00:16:15.675Z,11.26
2023-04-21T00:17:15.623Z,11.25
2023-04-21T00:18:15.641Z,11.23
2023-04-21T00:19:15.642Z,11.22
2023-04-21T00:20:15.632Z,11.22
2023-04-21T00:21:15.578Z,11.26
2023-04-21T00:22:15.560Z,11.27
2023-04-21T00:23:15.556Z,11.35
2023-04-21T00:24:15.599Z,11.33
2023-04-21T00:25:15.528Z,11.27
2023-04-21T00:26:15.510Z,11.26
2023-04-21T00:27:15.586Z,11.27
2023-04-21T00:28:15.484Z,11.30
2023-04-21T00:29:15.527Z,11.31
2023-04-21T00:30:15.478Z,11.30
2023-04-21T00:31:15.515Z,11.31
2023-04-21T00:32:15.453Z,11.33
2023-04-21T00:33:15.462Z,11.33
2023-04-21T00:34:15.457Z,11.31
2023-04-21T00:35:15.415Z,11.27
2023-04-21T00:36:15.415Z,11.30
2023-04-21T00:37:15.398Z,11.33
2023-04-21T00:38:15.450Z,11.30
2023-04-21T00:39:15.401Z,11.31
2023-04-21T00:40:15.427Z,11.31
2023-04-21T00:41:15.388Z,11.33
2023-04-21T00:42:15.346Z,11.37
2023-04-21T00:43:15.348Z,11.35
2023-04-21T00:44:15.355Z,11.34
2023-04-21T00:45:15.348Z,11.34
2023-04-21T00:46:15.367Z,11.33
2023-04-21T00:47:15.316Z,11.37
2023-04-21T00:48:15.317Z,11.35
2023-04-21T00:49:15.282Z,11.35
2023-04-21T00:50:15.285Z,11.38
2023-04-21T00:51:15.247Z,11.44
2023-04-21T00:52:15.260Z,11.40
2023-04-21T00:53:15.251Z,11.38
2023-04-21T00:54:15.250Z,11.40
2023-04-21T00:55:15.196Z,11.35
2023-04-21T00:56:15.219Z,11.34
2023-04-21T00:57:15.215Z,11.31
2023-04-21T00:58:15.214Z,11.38
2023-04-21T00:59:15.198Z,11.41
2023-04-21T01:00:15.226Z,11.40
2023-04-21T01:01:15.204Z,11.40
2023-04-21T01:02:15.213Z,11.35
2023-04-21T01:03:15.370Z,11.37
2023-04-21T01:04:15.198Z,11.35
2023-04-21T01:05:15.136Z,11.37
2023-04-21T01:06:15.149Z,11.38
2023-04-21T01:07:15.118Z,11.37
2023-04-21T01:08:15.088Z,11.35
2023-04-21T01:09:15.111Z,11.40
2023-04-21T01:10:15.052Z,11.43
2023-04-21T01:11:15.066Z,11.40
2023-04-21T01:12:15.085Z,11.40
2023-04-21T01:13:15.023Z,11.38
2023-04-21T01:14:15.095Z,11.41
2023-04-21T01:15:14.994Z,11.45
2023-04-21T01:16:15.046Z,11.45
2023-04-21T01:17:14.979Z,11.41
2023-04-21T01:18:15.097Z,11.38
2023-04-21T01:19:14.974Z,11.38
2023-04-21T01:20:14.941Z,11.40
2023-04-21T01:21:14.997Z,11.40
2023-04-21T01:22:14.930Z,11.40
2023-04-21T01:23:14.912Z,11.40
2023-04-21T01:24:14.995Z,11.40
2023-04-21T01:25:14.953Z,11.37
2023-04-21T01:26:15.017Z,11.41
2023-04-21T01:27:14.887Z,11.41
2023-04-21T01:28:14.885Z,11.38
2023-04-21T01:29:14.877Z,11.40
2023-04-21T01:30:14.801Z,11.38
2023-04-21T01:31:14.810Z,11.38
2023-04-21T01:32:14.846Z,11.40
2023-04-21T01:33:14.808Z,11.40
2023-04-21T01:34:14.817Z,11.40
2023-04-21T01:35:14.798Z,11.40
2023-04-21T01:36:14.825Z,11.38
2023-04-21T01:37:14.770Z,11.38
2023-04-21T01:38:14.790Z,11.38
2023-04-21T01:39:14.839Z,11.38
2023-04-21T01:40:14.693Z,11.41
2023-04-21T01:41:14.686Z,11.41
2023-04-21T01:42:14.740Z,11.41
2023-04-21T01:43:14.817Z,11.44
2023-04-21T01:44:14.680Z,11.44
2023-04-21T01:45:14.750Z,11.45
2023-04-21T01:46:14.696Z,11.43
2023-04-21T01:47:14.629Z,11.43
2023-04-21T01:48:14.682Z,11.41
2023-04-21T01:49:14.607Z,11.49
2023-04-21T01:50:14.621Z,11.48
2023-04-21T01:51:14.577Z,11.49
2023-04-21T01:52:14.623Z,11.48
2023-04-21T01:53:14.576Z,11.49
2023-04-21T01:54:14.552Z,11.48
2023-04-21T01:55:14.578Z,11.44
2023-04-21T01:56:14.559Z,11.44
2023-04-21T01:57:14.590Z,11.43
2023-04-21T01:58:14.570Z,11.44
2023-04-21T01:59:14.475Z,11.49
2023-04-21T02:00:14.515Z,11.48
2023-04-21T02:01:14.473Z,11.51
2023-04-21T02:02:14.555Z,11.49
2023-04-21T02:03:14.621Z,11.48
2023-04-21T02:04:14.671Z,11.48
2023-04-21T02:05:14.438Z,11.51
2023-04-21T02:06:14.438Z,11.45
2023-04-21T02:07:14.429Z,11.48
2023-04-21T02:08:14.560Z,11.48
2023-04-21T02:09:14.401Z,11.45
2023-04-21T02:10:14.420Z,11.49
2023-04-21T02:11:14.369Z,11.45
2023-04-21T02:12:14.413Z,11.45
2023-04-21T02:13:14.360Z,11.52
2023-04-21T02:14:14.401Z,11.51
2023-04-21T02:15:14.354Z,11.48
2023-04-21T02:16:14.583Z,11.45
2023-04-21T02:17:14.304Z,11.48
2023-04-21T02:18:14.390Z,11.49
2023-04-21T02:19:14.279Z,11.52
2023-04-21T02:20:14.280Z,11.51
2023-04-21T02:21:14.254Z,11.51
2023-04-21T02:22:14.254Z,11.52
2023-04-21T02:23:14.237Z,11.51
2023-04-21T02:24:14.266Z,11.48
2023-04-21T02:25:14.204Z,11.49
2023-04-21T02:26:14.202Z,11.51
2023-04-21T02:27:14.187Z,11.51
2023-04-21T02:28:14.226Z,11.51
2023-04-21T02:29:14.182Z,11.52
2023-04-21T02:30:14.415Z,11.49
2023-04-21T02:31:14.247Z,11.49
2023-04-21T02:32:25.005Z,11.45
2023-04-21T02:33:15.251Z,11.44
2023-04-21T02:34:14.189Z,11.45
2023-04-21T02:35:14.114Z,11.48
2023-04-21T02:36:14.090Z,11.49
2023-04-21T02:37:14.074Z,11.51
2023-04-21T02:38:14.129Z,11.53
2023-04-21T02:39:14.050Z,11.51
2023-04-21T02:40:14.045Z,11.49
2023-04-21T02:41:14.097Z,11.51
2023-04-21T02:42:14.106Z,11.51
2023-04-21T02:43:14.089Z,11.49
2023-04-21T02:44:14.096Z,11.49
2023-04-21T02:45:14.019Z,11.51
2023-04-21T02:46:14.058Z,11.51
2023-04-21T02:47:13.958Z,11.53
2023-04-21T02:48:13.970Z,11.49
2023-04-21T02:49:14.072Z,11.49
2023-04-21T02:50:13.989Z,11.52
2023-04-21T02:51:13.964Z,11.55
2023-04-21T02:52:13.936Z,11.53
2023-04-21T02:53:13.934Z,11.51
2023-04-21T02:54:13.957Z,11.52
2023-04-21T02:55:13.907Z,11.58
2023-04-21T02:56:13.915Z,11.56
2023-04-21T02:57:13.912Z,11.53
2023-04-21T02:58:13.930Z,11.52
2023-04-21T02:59:13.886Z,11.52
2023-04-21T03:00:13.880Z,11.52
2023-04-21T03:01:13.867Z,11.53
2023-04-21T03:02:13.889Z,11.52
2023-04-21T03:03:13.902Z,11.55
2023-04-21T03:04:14.003Z,11.53
2023-04-21T03:05:13.767Z,11.51
2023-04-21T03:06:13.768Z,11.51
2023-04-21T03:07:13.833Z,11.52
2023-04-21T03:08:13.751Z,11.51
2023-04-21T03:09:13.727Z,11.53
2023-04-21T03:10:13.761Z,11.55
2023-04-21T03:11:13.718Z,11.56
2023-04-21T03:12:13.757Z,11.51
2023-04-21T03:13:13.766Z,11.51
2023-04-21T03:14:13.676Z,11.45
2023-04-21T03:15:13.645Z,11.48
2023-04-21T03:16:13.724Z,11.48
2023-04-21T03:17:13.748Z,11.52
2023-04-21T03:18:13.757Z,11.51
2023-04-21T03:19:13.672Z,11.52
2023-04-21T03:20:13.659Z,11.49
2023-04-21T03:21:13.643Z,11.51
2023-04-21T03:22:13.575Z,11.52
2023-04-21T03:23:13.595Z,11.56
2023-04-21T03:24:13.662Z,11.55
2023-04-21T03:25:13.593Z,11.53
2023-04-21T03:26:13.560Z,11.51
2023-04-21T03:27:13.525Z,11.49
2023-04-21T03:28:13.635Z,11.48
2023-04-21T03:29:13.543Z,11.51
2023-04-21T03:30:13.525Z,11.51
2023-04-21T03:31:13.488Z,11.51
2023-04-21T03:32:13.627Z,11.48
2023-04-21T03:33:13.534Z,11.49
2023-04-21T03:34:13.482Z,11.51
2023-04-21T03:35:13.463Z,11.48
2023-04-21T03:36:13.454Z,11.45
2023-04-21T03:37:13.437Z,11.48
2023-04-21T03:38:13.402Z,11.43
2023-04-21T03:40:14.387Z,11.35
2023-04-21T03:41:13.387Z,11.40
2023-04-21T03:42:13.434Z,11.43
2023-04-21T03:43:13.419Z,11.43
2023-04-21T03:44:13.293Z,11.43
2023-04-21T03:45:13.346Z,11.48
2023-04-21T03:46:13.379Z,11.45
2023-04-21T03:47:13.252Z,11.48
2023-04-21T03:48:13.460Z,11.43
2023-04-21T03:49:13.240Z,11.43
2023-04-21T03:50:13.344Z,11.41
2023-04-21T03:51:13.294Z,11.44
2023-04-21T03:52:13.239Z,11.43
2023-04-21T03:53:13.220Z,11.41
2023-04-21T03:54:13.220Z,11.38
2023-04-21T03:55:13.182Z,11.41
2023-04-21T03:56:13.194Z,11.38
2023-04-21T03:57:13.131Z,11.40
2023-04-21T03:58:13.134Z,11.38
2023-04-21T03:59:13.127Z,11.40
2023-04-21T04:00:13.112Z,11.34
2023-04-21T04:01:13.102Z,11.37
2023-04-21T04:02:13.146Z,11.35
2023-04-21T04:03:13.317Z,11.41
2023-04-21T04:04:13.378Z,11.41
2023-04-21T04:05:13.167Z,11.41
2023-04-21T04:06:13.160Z,11.40
2023-04-21T04:07:13.053Z,11.41
2023-04-21T04:08:13.058Z,11.40
2023-04-21T04:09:13.009Z,11.41
2023-04-21T04:10:13.010Z,11.40
2023-04-21T04:11:12.980Z,11.40
2023-04-21T04:12:12.970Z,11.40
2023-04-21T04:13:12.994Z,11.38
2023-04-21T04:14:12.967Z,11.41
2023-04-21T04:15:12.943Z,11.43
2023-04-21T04:16:12.976Z,11.43
2023-04-21T04:17:13.025Z,11.43
2023-04-21T04:18:13.028Z,11.45
2023-04-21T04:19:12.960Z,11.44
2023-04-21T04:20:12.975Z,11.45
2023-04-21T04:21:12.958Z,11.49
2023-04-21T04:22:12.900Z,11.49
2023-04-21T04:23:12.905Z,11.52
2023-04-21T04:24:12.928Z,11.51
2023-04-21T04:25:12.833Z,11.48
2023-04-21T04:26:12.829Z,11.49
2023-04-21T04:27:12.955Z,11.51
2023-04-21T04:28:12.854Z,11.51
2023-04-21T04:29:12.819Z,11.53
2023-04-21T04:30:12.795Z,11.53
2023-04-21T04:31:12.794Z,11.53
2023-04-21T04:32:12.770Z,11.52
2023-04-21T04:33:12.747Z,11.52
2023-04-21T04:34:12.816Z,11.52
2023-04-21T04:35:12.766Z,11.55
2023-04-21T04:36:12.770Z,11.52
2023-04-21T04:37:12.727Z,11.51
2023-04-21T04:38:12.787Z,11.52
2023-04-21T04:39:12.675Z,11.53
2023-04-21T04:40:12.685Z,11.51
2023-04-21T04:41:12.686Z,11.52
2023-04-21T04:42:12.667Z,11.51
2023-04-21T04:43:12.671Z,11.53
2023-04-21T04:44:12.610Z,11.53
2023-04-21T04:45:12.623Z,11.52
2023-04-21T04:46:12.648Z,11.55
2023-04-21T04:47:12.592Z,11.55
2023-04-21T04:48:12.605Z,11.56
2023-04-21T04:49:12.551Z,11.58
2023-04-21T04:50:12.583Z,11.59
2023-04-21T04:51:12.776Z,11.62
2023-04-21T04:52:12.551Z,11.60
2023-04-21T04:53:12.639Z,11.63
2023-04-21T04:54:12.531Z,11.67
2023-04-21T04:55:12.499Z,11.67
2023-04-21T04:56:12.534Z,11.63
2023-04-21T04:57:12.472Z,11.65
2023-04-21T04:58:12.496Z,11.67
2023-04-21T04:59:12.454Z,11.67
2023-04-21T05:00:12.485Z,11.65
2023-04-21T05:01:12.462Z,11.67
2023-04-21T05:02:12.478Z,11.68
2023-04-21T05:03:12.608Z,11.67
2023-04-21T05:04:12.511Z,11.68
2023-04-21T05:05:12.534Z,11.70
2023-04-21T05:06:12.415Z,11.67
2023-04-21T05:07:12.373Z,11.70
2023-04-21T05:08:12.381Z,11.70
2023-04-21T05:09:12.382Z,11.71
2023-04-21T05:10:12.387Z,11.71
2023-04-21T05:11:12.365Z,11.73
2023-04-21T05:12:12.320Z,11.73
2023-04-21T05:13:12.336Z,11.73
2023-04-21T05:14:12.319Z,11.71
2023-04-21T05:15:12.314Z,11.73
2023-04-21T05:16:12.449Z,11.73
2023-04-21T05:17:12.307Z,11.73
2023-04-21T05:18:12.337Z,11.74
2023-04-21T05:19:12.359Z,11.73
2023-04-21T05:20:12.417Z,11.71
2023-04-21T05:21:12.298Z,11.73
2023-04-21T05:22:12.289Z,11.71
2023-04-21T05:23:12.292Z,11.73
2023-04-21T05:24:12.267Z,11.74
2023-04-21T05:25:12.244Z,11.74
2023-04-21T05:26:12.221Z,11.76
2023-04-21T05:27:12.226Z,11.76
2023-04-21T05:28:12.200Z,11.76
2023-04-21T05:29:12.207Z,11.77
2023-04-21T05:30:12.170Z,11.77
2023-04-21T05:31:12.154Z,11.80
2023-04-21T05:32:12.341Z,11.85
2023-04-21T05:33:12.264Z,11.81
2023-04-21T05:34:12.158Z,11.80
2023-04-21T05:35:15.149Z,11.85
2023-04-21T05:36:12.271Z,11.83
2023-04-21T05:37:12.117Z,11.85
2023-04-21T05:38:12.116Z,11.88
2023-04-21T05:39:12.132Z,11.88
2023-04-21T05:40:12.049Z,11.93
2023-04-21T05:41:12.102Z,11.93
2023-04-21T05:42:12.052Z,11.95
2023-04-21T05:43:12.081Z,11.93
2023-04-21T05:44:12.084Z,11.96
2023-04-21T05:45:12.030Z,11.95
2023-04-21T05:46:12.050Z,12.00
2023-04-21T05:47:12.044Z,12.00
2023-04-21T05:48:13.618Z,12.05
2023-04-21T05:49:11.969Z,12.05
2023-04-21T05:50:11.934Z,12.00
2023-04-21T05:51:11.947Z,12.00
2023-04-21T05:52:11.950Z,12.02
2023-04-21T05:53:11.928Z,12.05
2023-04-21T05:54:11.887Z,12.03
2023-04-21T05:55:11.898Z,12.07
2023-04-21T05:56:11.851Z,12.08
2023-04-21T05:57:11.854Z,12.10
2023-04-21T05:58:11.846Z,12.14
2023-04-21T05:59:11.896Z,12.17
2023-04-21T06:00:11.808Z,12.15
2023-04-21T06:01:11.791Z,12.12
2023-04-21T06:02:11.909Z,12.12
2023-04-21T06:03:11.956Z,12.14
2023-04-21T06:04:12.043Z,12.15
2023-04-21T06:05:11.794Z,12.17
2023-04-21T06:06:11.767Z,12.15
2023-04-21T06:07:11.711Z,12.17
2023-04-21T06:08:11.776Z,12.18
2023-04-21T06:09:11.720Z,12.17
2023-04-21T06:10:11.710Z,12.14
2023-04-21T06:11:11.678Z,12.17
2023-04-21T06:12:11.706Z,12.20
2023-04-21T06:13:11.676Z,12.25
2023-04-21T06:14:11.662Z,12.21
2023-04-21T06:15:11.692Z,12.26
2023-04-21T06:16:11.670Z,12.30
2023-04-21T06:17:11.649Z,12.33
2023-04-21T06:18:11.653Z,12.29
2023-04-21T06:19:11.620Z,12.29
2023-04-21T06:20:11.632Z,12.28
2023-04-21T06:21:11.633Z,12.32
2023-04-21T06:22:11.598Z,12.39
2023-04-21T06:23:11.595Z,12.36
2023-04-21T06:24:11.541Z,12.44
2023-04-21T06:25:11.525Z,12.45
2023-04-21T06:26:11.533Z,12.43
2023-04-21T06:27:11.523Z,12.45
2023-04-21T06:28:11.524Z,12.44
2023-04-21T06:29:11.488Z,12.47
2023-04-21T06:30:11.510Z,12.45
2023-04-21T06:31:11.494Z,12.48
2023-04-21T06:32:11.478Z,12.45
2023-04-21T06:33:11.585Z,12.45
2023-04-21T06:34:11.531Z,12.45
2023-04-21T06:35:11.480Z,12.48
2023-04-21T06:36:11.453Z,12.50
2023-04-21T06:37:11.404Z,12.50
2023-04-21T06:38:11.398Z,12.47
2023-04-21T06:39:11.400Z,12.51
2023-04-21T06:40:11.366Z,12.54
2023-04-21T06:41:11.363Z,12.53
2023-04-21T06:42:11.599Z,12.55
2023-04-21T06:43:11.356Z,12.57
2023-04-21T06:44:11.363Z,12.55
2023-04-21T06:45:11.358Z,12.54
2023-04-21T06:46:11.313Z,12.53
2023-04-21T06:47:11.382Z,12.62
2023-04-21T06:48:11.353Z,12.63
2023-04-21T06:49:11.275Z,12.65
2023-04-21T06:50:11.274Z,12.69
2023-04-21T06:51:11.261Z,12.73
2023-04-21T06:52:11.251Z,12.78
2023-04-21T06:53:11.250Z,12.86
2023-04-21T06:54:11.222Z,12.95
2023-04-21T06:55:11.216Z,13.02
2023-04-21T06:56:11.269Z,13.12
2023-04-21T06:57:11.217Z,13.19
2023-04-21T06:58:11.223Z,13.24
2023-04-21T06:59:11.169Z,13.28
2023-04-21T07:00:11.140Z,13.26
2023-04-21T07:01:11.210Z,13.31
2023-04-21T07:02:11.155Z,13.39
2023-04-21T07:03:11.289Z,13.47
2023-04-21T07:04:11.140Z,13.49
2023-04-21T07:05:11.096Z,13.55
2023-04-21T07:06:11.074Z,13.60
2023-04-21T07:07:11.121Z,13.62
2023-04-21T07:08:11.177Z,13.68
2023-04-21T07:09:11.113Z,13.70
2023-04-21T07:10:11.163Z,13.73
2023-04-21T07:11:11.064Z,13.80
2023-04-21T07:12:11.044Z,13.83
2023-04-21T07:13:11.030Z,13.89
2023-04-21T07:14:11.106Z,13.95
2023-04-21T07:15:11.095Z,14.00
2023-04-21T07:16:11.189Z,14.04
2023-04-21T07:17:11.068Z,14.12
2023-04-21T07:18:11.032Z,14.16
2023-04-21T07:19:10.948Z,14.23
2023-04-21T07:20:10.937Z,14.30
2023-04-21T07:21:10.966Z,14.43
2023-04-21T07:22:10.919Z,14.53
2023-04-21T07:23:10.946Z,14.66
2023-04-21T07:24:10.902Z,14.78
2023-04-21T07:25:10.949Z,14.94
2023-04-21T07:26:10.899Z,15.11
2023-04-21T07:27:10.890Z,15.23
2023-04-21T07:28:10.896Z,15.41
2023-04-21T07:29:10.858Z,15.60
2023-04-21T07:30:10.884Z,15.83
2023-04-21T07:31:10.874Z,16.02
2023-04-21T07:32:10.887Z,16.13
2023-04-21T07:33:11.022Z,16.26
2023-04-21T07:34:10.809Z,16.31
2023-04-21T07:35:10.807Z,16.32
2023-04-21T07:36:10.772Z,16.32
2023-04-21T07:37:10.865Z,16.36
2023-04-21T07:38:10.727Z,16.39
2023-04-21T07:39:10.726Z,16.43
2023-04-21T07:40:10.705Z,16.44
2023-04-21T07:41:10.686Z,16.43
2023-04-21T07:42:10.715Z,16.40
2023-04-21T07:43:10.846Z,16.41
2023-04-21T07:44:10.707Z,16.43
2023-04-21T07:45:10.691Z,16.43
2023-04-21T07:46:10.720Z,16.43
2023-04-21T07:47:10.646Z,16.40
2023-04-21T07:48:10.681Z,16.40
2023-04-21T07:49:10.648Z,16.44
2023-04-21T07:50:10.638Z,16.40
2023-04-21T07:51:10.587Z,16.39
2023-04-21T07:52:10.607Z,16.28
2023-04-21T07:53:10.720Z,16.22
2023-04-21T07:54:10.555Z,16.21
2023-04-21T07:55:10.907Z,16.25
2023-04-21T07:56:10.531Z,16.28
2023-04-21T07:57:10.518Z,16.29
2023-04-21T07:58:10.528Z,16.29
2023-04-21T07:59:10.529Z,16.26
2023-04-21T08:00:10.541Z,16.29
2023-04-21T08:01:10.486Z,16.29
2023-04-21T08:02:10.583Z,16.29
2023-04-21T08:03:10.646Z,16.34
2023-04-21T08:04:10.521Z,16.36
2023-04-21T08:05:10.595Z,16.36
2023-04-21T08:06:10.809Z,16.37
2023-04-21T08:07:10.469Z,16.36
2023-04-21T08:08:10.424Z,16.41
2023-04-21T08:09:10.441Z,16.55
2023-04-21T08:10:10.451Z,16.68
2023-04-21T08:11:10.989Z,16.84
2023-04-21T08:12:10.366Z,16.98
2023-04-21T08:13:10.391Z,17.14
2023-04-21T08:14:10.425Z,17.27
2023-04-21T08:15:10.322Z,17.38
2023-04-21T08:16:10.488Z,17.46
2023-04-21T08:17:10.331Z,17.53
2023-04-21T08:18:10.398Z,17.52
2023-04-21T08:19:10.468Z,17.59
2023-04-21T08:20:10.350Z,17.66
2023-04-21T08:21:10.383Z,17.68
2023-04-21T08:22:10.387Z,17.69
2023-04-21T08:23:10.379Z,17.69
2023-04-21T08:24:10.249Z,17.69
2023-04-21T08:25:10.265Z,17.69
2023-04-21T08:26:10.212Z,17.69
2023-04-21T08:27:10.223Z,17.69
2023-04-21T08:28:10.224Z,17.65
2023-04-21T08:29:10.203Z,17.59
2023-04-21T08:30:10.264Z,17.59
2023-04-21T08:31:10.264Z,17.65
2023-04-21T08:32:10.303Z,17.69
2023-04-21T08:33:10.240Z,17.78
2023-04-21T08:34:10.152Z,17.79
2023-04-21T08:35:10.148Z,17.82
2023-04-21T08:36:18.260Z,17.86
2023-04-21T08:37:11.155Z,17.88
2023-04-21T08:38:10.181Z,17.98
2023-04-21T08:39:10.066Z,18.11
2023-04-21T08:40:10.055Z,18.21
2023-04-21T08:41:10.046Z,18.34
2023-04-21T08:42:10.118Z,18.45
2023-04-21T08:43:10.266Z,18.55
2023-04-21T08:44:10.073Z,18.55
2023-04-21T08:45:10.029Z,18.55
2023-04-21T08:46:10.070Z,18.51
2023-04-21T08:47:10.011Z,18.51
2023-04-21T08:48:10.108Z,18.43
2023-04-21T08:49:09.966Z,18.39
2023-04-21T08:50:09.925Z,18.36
2023-04-21T08:51:10.102Z,18.34
2023-04-21T08:52:09.911Z,18.33
2023-04-21T08:53:09.908Z,18.30
2023-04-21T08:54:09.947Z,18.27
2023-04-21T08:55:09.910Z,18.27
2023-04-21T08:56:11.624Z,18.23
2023-04-21T08:57:15.449Z,18.21
2023-04-21T08:58:10.868Z,18.19
2023-04-21T08:59:09.862Z,18.16
2023-04-21T09:00:09.855Z,18.15
2023-04-21T09:01:10.002Z,18.19
2023-04-21T09:02:09.953Z,18.23
2023-04-21T09:03:19.299Z,18.19
2023-04-21T09:04:11.021Z,18.18
2023-04-21T09:05:10.005Z,18.16
2023-04-21T09:06:10.237Z,18.13
2023-04-21T09:07:09.751Z,18.12
2023-04-21T09:08:09.784Z,18.09
2023-04-21T09:09:09.783Z,18.11
2023-04-21T09:10:09.787Z,18.13
2023-04-21T09:11:09.784Z,18.21
2023-04-21T09:12:09.762Z,18.34
2023-04-21T09:13:09.898Z,18.41
2023-04-21T09:14:09.726Z,18.41
2023-04-21T09:15:09.848Z,18.42
2023-04-21T09:16:09.772Z,18.39
2023-04-21T09:17:09.872Z,18.43
2023-04-21T09:18:09.718Z,18.46
2023-04-21T09:19:09.636Z,18.46
2023-04-21T09:20:09.805Z,18.43
2023-04-21T09:21:09.582Z,18.41
2023-04-21T09:22:09.616Z,18.37
2023-04-21T09:23:09.577Z,18.36
2023-04-21T09:24:09.569Z,18.31
2023-04-21T09:25:09.620Z,18.23
2023-04-21T09:26:09.562Z,18.19
2023-04-21T09:27:09.567Z,18.13
2023-04-21T09:28:09.531Z,18.06
2023-04-21T09:29:09.511Z,17.98
2023-04-21T09:30:09.506Z,17.95
2023-04-21T09:31:09.545Z,17.95
2023-04-21T09:32:10.879Z,17.97
2023-04-21T09:33:20.104Z,17.95
2023-04-21T09:34:10.501Z,17.97
2023-04-21T09:35:09.465Z,18.00
2023-04-21T09:36:09.436Z,18.02
2023-04-21T09:37:09.422Z,18.06
2023-04-21T09:38:09.415Z,18.08
2023-04-21T09:40:09.380Z,18.12
2023-04-21T09:41:09.454Z,18.18
2023-04-21T09:42:09.396Z,18.23
2023-04-21T09:43:09.372Z,18.30
2023-04-21T09:44:09.416Z,18.41
2023-04-21T09:45:29.014Z,18.49
2023-04-21T09:46:10.417Z,18.63
2023-04-21T09:47:09.346Z,18.83
2023-04-21T09:48:09.439Z,18.97
2023-04-21T09:49:09.307Z,19.19
2023-04-21T09:50:12.575Z,19.24
2023-04-21T09:52:17.583Z,19.37
2023-04-21T09:53:10.283Z,19.38
2023-04-21T09:54:15.617Z,19.27
2023-04-21T09:55:10.233Z,19.16
2023-04-21T09:56:09.236Z,18.97
2023-04-21T09:57:09.347Z,18.81
2023-04-21T09:58:09.316Z,18.67
2023-04-21T09:59:09.339Z,18.53
2023-04-21T10:00:09.317Z,18.39
2023-04-21T10:01:09.243Z,18.33
2023-04-21T10:02:09.217Z,18.27
2023-04-21T10:03:09.410Z,18.26
2023-04-21T10:04:09.508Z,18.16
2023-04-21T10:05:09.279Z,18.13
2023-04-21T10:06:09.198Z,18.05
2023-04-21T10:07:09.077Z,18.03
2023-04-21T10:08:09.072Z,17.98
2023-04-21T10:09:09.052Z,17.97
2023-04-21T10:10:09.042Z,17.94
2023-04-21T10:11:09.043Z,17.97
2023-04-21T10:12:09.621Z,18.00
2023-04-21T10:13:09.021Z,18.02
2023-04-21T10:14:08.988Z,17.93
2023-04-21T10:15:08.999Z,17.93
2023-04-21T10:16:09.052Z,17.88
2023-04-21T10:17:09.268Z,17.86
2023-04-21T10:18:08.950Z,17.82
2023-04-21T10:19:08.940Z,17.82
2023-04-21T10:20:08.954Z,17.75
2023-04-21T10:21:08.916Z,17.78
2023-04-21T10:22:08.923Z,17.80
2023-04-21T10:23:08.918Z,17.86
2023-04-21T10:24:08.886Z,17.91
2023-04-21T10:25:08.905Z,17.90
2023-04-21T10:26:08.892Z,17.91
2023-04-21T10:27:08.855Z,17.86
2023-04-21T10:28:08.968Z,17.82
2023-04-21T10:29:08.908Z,17.84
2023-04-21T10:30:08.816Z,17.80
2023-04-21T10:31:08.854Z,17.88
2023-04-21T10:32:09.490Z,17.93
2023-04-21T10:33:08.877Z,18.00
2023-04-21T10:34:08.813Z,18.12
2023-04-21T10:35:08.760Z,18.28
2023-04-21T10:36:08.770Z,18.41
2023-04-21T10:37:08.761Z,18.49
2023-04-21T10:38:08.801Z,18.60
2023-04-21T10:39:08.722Z,18.68
2023-04-21T10:40:08.754Z,18.74
2023-04-21T10:41:08.737Z,18.82
2023-04-21T10:42:08.691Z,18.79
2023-04-21T10:43:08.691Z,18.79
2023-04-21T10:44:08.714Z,18.85
2023-04-21T10:45:08.659Z,18.91
2023-04-21T10:46:08.637Z,18.92
2023-04-21T10:47:08.804Z,18.96
2023-04-21T10:48:08.710Z,18.96
2023-04-21T10:49:08.637Z,18.96
2023-04-21T10:50:08.636Z,18.91
2023-04-21T10:51:08.578Z,18.92
2023-04-21T10:52:08.633Z,18.88
2023-04-21T10:53:08.582Z,18.82
2023-04-21T10:54:08.563Z,18.81
2023-04-21T10:55:08.539Z,18.74
2023-04-21T10:56:08.527Z,18.74
2023-04-21T10:57:08.938Z,18.79
2023-04-21T10:58:08.552Z,18.83
2023-04-21T10:59:08.529Z,18.88
2023-04-21T11:00:08.572Z,18.94
2023-04-21T11:01:08.477Z,19.01
2023-04-21T11:02:08.534Z,19.09
2023-04-21T11:03:08.722Z,19.16
2023-04-21T11:04:08.587Z,19.16
2023-04-21T11:05:08.484Z,19.15
2023-04-21T11:06:08.410Z,19.08
2023-04-21T11:07:08.404Z,19.08
2023-04-21T11:08:08.392Z,19.05
2023-04-21T11:09:08.394Z,19.07
2023-04-21T11:10:08.406Z,19.08
2023-04-21T11:11:08.396Z,19.09
2023-04-21T11:12:08.468Z,19.11
2023-04-21T11:13:08.361Z,19.16
2023-04-21T11:14:08.356Z,19.12
2023-04-21T11:15:08.341Z,19.11
2023-04-21T11:16:08.409Z,19.15
2023-04-21T11:17:08.435Z,19.15
2023-04-21T11:18:08.380Z,19.11
2023-04-21T11:19:08.285Z,19.11
2023-04-21T11:20:08.272Z,19.16
2023-04-21T11:21:08.256Z,19.22
2023-04-21T11:22:08.319Z,19.26
2023-04-21T11:23:08.285Z,19.35
2023-04-21T11:24:08.235Z,19.41
2023-04-21T11:25:08.261Z,19.35
2023-04-21T11:26:08.237Z,19.38
2023-04-21T11:27:08.194Z,19.52
2023-04-21T11:28:08.174Z,19.64
2023-04-21T11:29:08.151Z,19.75
2023-04-21T11:30:08.363Z,19.81
2023-04-21T11:31:08.209Z,19.84
2023-04-21T11:32:08.185Z,19.84
2023-04-21T11:33:08.209Z,19.89
2023-04-21T11:34:08.142Z,19.92
2023-04-21T11:35:08.576Z,19.93
2023-04-21T11:36:08.106Z,19.96
2023-04-21T11:37:08.128Z,19.99
2023-04-21T11:38:08.175Z,20.04
2023-04-21T11:39:08.189Z,20.12
2023-04-21T11:40:08.122Z,20.15
2023-04-21T11:41:08.094Z,20.26
2023-04-21T11:42:08.052Z,20.33
2023-04-21T11:43:08.034Z,20.40
2023-04-21T11:44:08.046Z,20.53
2023-04-21T11:45:07.998Z,20.67
2023-04-21T11:46:08.040Z,20.80
2023-04-21T11:47:08.040Z,20.88
2023-04-21T11:48:08.048Z,20.89
2023-04-21T11:49:07.945Z,20.95
2023-04-21T11:50:07.951Z,21.11
2023-04-21T11:51:07.970Z,21.54
2023-04-21T11:52:07.927Z,22.01
2023-04-21T11:53:07.996Z,22.23
2023-04-21T11:54:07.943Z,22.25
2023-04-21T11:55:07.924Z,22.19
2023-04-21T11:56:07.886Z,22.14
2023-04-21T11:57:07.850Z,22.01
2023-04-21T11:58:07.877Z,22.00
2023-04-21T11:59:07.881Z,22.07
2023-04-21T12:00:07.924Z,22.10
2023-04-21T12:01:07.894Z,22.06
2023-04-21T12:02:07.858Z,22.04
2023-04-21T12:03:08.034Z,22.14
2023-04-21T12:04:08.029Z,22.15
2023-04-21T12:05:07.887Z,22.07
2023-04-21T12:06:07.863Z,22.00
2023-04-21T12:07:07.769Z,21.97
2023-04-21T12:08:07.740Z,21.99
2023-04-21T12:09:07.730Z,21.97
2023-04-21T12:10:07.768Z,21.91
2023-04-21T12:11:07.746Z,21.85
2023-04-21T12:12:07.705Z,21.83
2023-04-21T12:13:07.695Z,21.78
2023-04-21T12:14:07.686Z,21.78
2023-04-21T12:15:07.681Z,21.72
2023-04-21T12:16:07.737Z,21.72
2023-04-21T12:17:07.717Z,21.69
2023-04-21T12:18:07.756Z,21.69
2023-04-21T12:19:07.636Z,21.69
2023-04-21T12:20:07.686Z,21.65
2023-04-21T12:21:07.698Z,21.65
2023-04-21T12:22:07.701Z,21.59
2023-04-21T12:23:07.601Z,21.54
2023-04-21T12:24:07.596Z,21.47
2023-04-21T12:25:07.688Z,21.43
2023-04-21T12:26:07.568Z,21.44
2023-04-21T12:27:07.586Z,21.38
2023-04-21T12:28:07.525Z,21.35
2023-04-21T12:29:07.531Z,21.35
2023-04-21T12:30:07.522Z,21.41
2023-04-21T12:31:07.572Z,21.48
2023-04-21T12:32:07.552Z,21.53
2023-04-21T12:33:07.556Z,21.54
2023-04-21T12:34:07.595Z,21.58
2023-04-21T12:35:07.471Z,21.56
2023-04-21T12:36:07.421Z,21.50
2023-04-21T12:37:07.501Z,21.48
2023-04-21T12:38:07.437Z,21.43
2023-04-21T12:39:07.413Z,21.44
2023-04-21T12:40:07.409Z,21.47
2023-04-21T12:41:07.428Z,21.50
2023-04-21T12:42:07.390Z,21.50
2023-04-21T12:43:07.354Z,21.44
2023-04-21T12:44:07.354Z,21.35
2023-04-21T12:45:07.354Z,21.30
2023-04-21T12:46:07.343Z,21.26
2023-04-21T12:47:07.325Z,21.20
2023-04-21T12:48:07.371Z,21.13
2023-04-21T12:49:07.319Z,21.03
2023-04-21T12:50:07.300Z,20.95
2023-04-21T12:51:07.296Z,20.90
2023-04-21T12:52:07.474Z,20.85
2023-04-21T12:53:07.311Z,20.80
2023-04-21T12:54:07.261Z,20.82
2023-04-21T12:55:07.224Z,20.86